Time;durP1;ratioP1;P1;durP2;ratioP2;P2;SDS_P1;SDS_P2;PMS_P1;PMS_P2;Temp;Humidity;BMP_temperature;BMP_pressure;BME280_temperature;BME280_humidity;BME280_pressure;Samples;Min_cycle;Max_cycle;Signal;HPM_P1;HPM_P2
2022/01/07 00:01:49;;;;;;;14.30;9.27;;;7.50;67.30;;;;;;5012859;28;20030;-79
2022/01/07 00:04:15;;;;;;;15.60;10.35;;;7.50;67.30;;;;;;5012444;28;20041;-78
2022/01/07 00:06:40;;;;;;;13.80;10.35;;;7.50;66.80;;;;;;5020896;28;20037;-78
2022/01/07 00:09:06;;;;;;;14.15;9.63;;;7.60;66.70;;;;;;4992936;28;20041;-78
2022/01/07 00:11:32;;;;;;;13.35;9.57;;;7.50;66.50;;;;;;5007451;28;20347;-78
2022/01/07 00:13:57;;;;;;;13.30;8.55;;;7.40;66.10;;;;;;5011467;28;20140;-78
2022/01/07 00:16:23;;;;;;;13.50;10.13;;;7.50;66.60;;;;;;5014233;28;20026;-78
2022/01/07 00:18:48;;;;;;;12.63;8.52;;;7.50;66.60;;;;;;5013488;28;20037;-78
2022/01/07 00:21:14;;;;;;;11.82;8.60;;;7.50;66.60;;;;;;5004333;28;20540;-78
2022/01/07 00:23:40;;;;;;;12.95;8.57;;;7.50;66.20;;;;;;5014206;28;20038;-78
2022/01/07 00:26:06;;;;;;;10.00;7.72;;;7.60;66.40;;;;;;4994796;28;20129;-77
2022/01/07 00:28:31;;;;;;;12.20;8.32;;;7.60;66.00;;;;;;5013202;28;20049;-80
2022/01/07 00:30:57;;;;;;;10.50;7.95;;;7.50;65.20;;;;;;4997461;28;20026;-79
2022/01/07 00:33:23;;;;;;;10.88;7.15;;;7.50;65.90;;;;;;5007730;28;20029;-79
2022/01/07 00:35:48;;;;;;;11.65;8.85;;;7.50;66.10;;;;;;5002240;28;20109;-79
2022/01/07 00:38:14;;;;;;;9.60;6.70;;;7.50;65.50;;;;;;4993893;28;20125;-79
2022/01/07 00:40:40;;;;;;;12.00;8.65;;;7.50;65.70;;;;;;5012995;28;20072;-79
2022/01/07 00:43:06;;;;;;;9.63;6.63;;;7.40;65.10;;;;;;5012627;28;20038;-79
2022/01/07 00:45:33;;;;;;;9.90;7.18;;;7.50;65.70;;;;;;5002891;28;20030;-78
2022/01/07 00:47:59;;;;;;;10.48;7.35;;;7.50;65.70;;;;;;5012886;28;20061;-78
2022/01/07 00:50:28;;;;;;;8.38;6.50;;;7.50;65.90;;;;;;5022438;28;20033;-80
2022/01/07 00:52:54;;;;;;;9.95;7.10;;;7.50;65.70;;;;;;5015478;28;20080;-80
2022/01/07 00:55:20;;;;;;;9.27;6.88;;;7.50;65.80;;;;;;5013133;28;20026;-80
2022/01/07 00:57:47;;;;;;;10.18;7.43;;;7.60;65.70;;;;;;5012947;28;20034;-80
2022/01/07 01:00:15;;;;;;;9.88;6.97;;;7.60;65.70;;;;;;5013449;28;20038;-80
2022/01/07 01:02:41;;;;;;;9.52;6.60;;;7.60;65.30;;;;;;5016884;28;20120;-80
2022/01/07 01:05:09;;;;;;;12.43;9.77;;;7.60;65.10;;;;;;5004369;28;20156;-77
2022/01/07 01:07:35;;;;;;;10.10;7.57;;;7.60;64.60;;;;;;5012073;28;20045;-77
2022/01/07 01:10:05;;;;;;;10.05;7.50;;;7.50;65.20;;;;;;5009694;28;20022;-77
2022/01/07 01:12:31;;;;;;;10.05;7.72;;;7.50;65.20;;;;;;5005173;28;20045;-78
2022/01/07 01:14:57;;;;;;;10.98;7.57;;;7.50;65.70;;;;;;5012047;28;20017;-78
2022/01/07 01:17:23;;;;;;;10.82;7.72;;;7.50;65.40;;;;;;5012430;28;20477;-79
2022/01/07 01:19:48;;;;;;;9.43;7.72;;;7.50;65.20;;;;;;5021565;28;20357;-79
2022/01/07 01:22:15;;;;;;;11.50;7.90;;;7.50;65.20;;;;;;4994731;28;20038;-79
2022/01/07 01:24:41;;;;;;;9.95;7.40;;;7.50;65.00;;;;;;5017566;28;20028;-80
2022/01/07 01:27:06;;;;;;;11.80;7.30;;;7.40;64.10;;;;;;5004728;28;20132;-79
2022/01/07 01:29:32;;;;;;;9.18;7.05;;;7.40;65.00;;;;;;5012278;28;20029;-79
2022/01/07 01:31:58;;;;;;;10.23;7.88;;;7.50;65.10;;;;;;5012380;28;20482;-79
2022/01/07 01:34:24;;;;;;;9.70;7.13;;;7.40;64.40;;;;;;5012377;28;20105;-80
2022/01/07 01:36:50;;;;;;;9.27;6.80;;;7.40;64.50;;;;;;5011892;28;20036;-79
2022/01/07 01:39:16;;;;;;;8.52;6.70;;;7.40;64.10;;;;;;5006155;28;20026;-79
2022/01/07 01:41:44;;;;;;;8.85;6.30;;;7.30;64.00;;;;;;5013660;28;20496;-79
2022/01/07 01:44:10;;;;;;;9.57;6.53;;;7.30;64.10;;;;;;5016008;28;20033;-79
2022/01/07 01:46:36;;;;;;;8.27;6.38;;;7.30;64.00;;;;;;4990832;28;20038;-79
2022/01/07 01:49:02;;;;;;;8.23;6.13;;;7.30;64.00;;;;;;5010634;28;20032;-79
2022/01/07 01:51:28;;;;;;;8.48;6.55;;;7.30;64.20;;;;;;4990613;28;20035;-80
2022/01/07 01:53:54;;;;;;;8.38;6.03;;;7.30;64.40;;;;;;5010700;28;20037;-80
2022/01/07 01:56:20;;;;;;;8.23;6.50;;;7.20;64.10;;;;;;5012094;28;20026;-80
2022/01/07 01:58:46;;;;;;;11.23;6.72;;;7.20;64.10;;;;;;5011339;28;20030;-80
2022/01/07 02:01:12;;;;;;;7.88;6.13;;;7.20;64.10;;;;;;5014972;28;20486;-80
2022/01/07 02:03:37;;;;;;;6.75;5.35;;;7.20;64.20;;;;;;5014358;28;20033;-80
2022/01/07 02:06:03;;;;;;;8.05;5.47;;;7.20;64.20;;;;;;5008097;28;20524;-80
2022/01/07 02:08:30;;;;;;;8.93;5.13;;;7.30;64.20;;;;;;5014981;28;20041;-80
2022/01/07 02:10:58;;;;;;;8.90;5.70;;;7.20;64.20;;;;;;4997521;28;20366;-81
2022/01/07 02:13:23;;;;;;;7.63;5.70;;;7.30;64.00;;;;;;5009253;28;20042;-80
2022/01/07 02:15:49;;;;;;;7.13;4.95;;;7.20;62.40;;;;;;5015803;28;20362;-79
2022/01/07 02:18:17;;;;;;;6.40;5.00;;;7.20;63.20;;;;;;5020796;28;20486;-79
2022/01/07 02:20:43;;;;;;;8.18;5.15;;;7.20;63.30;;;;;;5014369;28;20482;-79
2022/01/07 02:23:09;;;;;;;8.30;5.35;;;7.20;63.30;;;;;;5011562;28;20033;-80
2022/01/07 02:25:34;;;;;;;6.80;4.60;;;7.20;63.50;;;;;;5010261;28;20059;-80
2022/01/07 02:28:00;;;;;;;6.47;4.75;;;7.20;63.50;;;;;;5017170;28;20030;-80
2022/01/07 02:30:29;;;;;;;8.43;5.50;;;7.20;62.70;;;;;;5014455;28;20034;-79
2022/01/07 02:32:57;;;;;;;8.83;5.33;;;7.30;62.80;;;;;;4995166;28;20059;-79
2022/01/07 02:35:26;;;;;;;6.35;4.53;;;7.30;62.50;;;;;;5015117;28;20048;-79
2022/01/07 02:37:52;;;;;;;6.05;4.07;;;7.20;62.70;;;;;;5012553;28;20033;-79
2022/01/07 02:40:18;;;;;;;6.20;4.78;;;7.20;62.00;;;;;;5015910;28;20029;-79
2022/01/07 02:42:43;;;;;;;6.82;4.63;;;7.20;62.20;;;;;;5022469;28;20045;-80
2022/01/07 02:45:12;;;;;;;8.00;4.88;;;7.10;62.00;;;;;;5015233;28;20030;-79
2022/01/07 02:50:14;;;;;;;5.82;4.10;;;7.10;61.30;;;;;;5006740;28;20105;-80
2022/01/07 02:52:39;;;;;;;5.47;3.83;;;7.10;62.00;;;;;;5014361;28;20478;-80
2022/01/07 02:55:06;;;;;;;6.45;4.00;;;7.10;62.00;;;;;;5015078;28;20076;-80
2022/01/07 02:57:31;;;;;;;5.35;3.58;;;7.10;61.80;;;;;;5014324;28;20095;-78
2022/01/07 02:59:57;;;;;;;4.95;3.47;;;7.10;61.70;;;;;;5024550;28;20076;-77
2022/01/07 03:02:23;;;;;;;5.72;3.55;;;7.10;61.90;;;;;;5011088;28;20038;-77
2022/01/07 03:04:48;;;;;;;5.65;3.22;;;7.10;61.50;;;;;;5015315;28;20026;-78
2022/01/07 03:07:14;;;;;;;4.32;2.88;;;7.10;61.60;;;;;;5007336;28;20255;-78
2022/01/07 03:09:40;;;;;;;4.40;2.90;;;7.10;61.50;;;;;;5014192;28;20466;-79
2022/01/07 03:12:06;;;;;;;4.07;3.00;;;7.10;61.20;;;;;;5015066;28;20040;-79
2022/01/07 03:14:31;;;;;;;5.85;2.90;;;7.10;61.30;;;;;;5015604;28;20017;-79
2022/01/07 03:16:57;;;;;;;3.97;2.50;;;7.10;61.10;;;;;;4989980;28;20530;-78
2022/01/07 03:19:23;;;;;;;3.88;2.60;;;7.10;61.00;;;;;;5015566;28;20493;-78
2022/01/07 03:21:48;;;;;;;4.00;2.35;;;7.10;60.40;;;;;;5014661;28;20053;-79
2022/01/07 03:24:14;;;;;;;4.72;2.65;;;7.10;60.10;;;;;;5013924;28;20068;-79
2022/01/07 03:26:40;;;;;;;4.10;2.60;;;7.00;59.20;;;;;;5016367;28;20038;-81
2022/01/07 03:29:05;;;;;;;4.28;2.83;;;7.00;60.20;;;;;;5022863;28;20029;-81
2022/01/07 03:31:31;;;;;;;4.38;2.50;;;7.00;60.00;;;;;;5020971;28;20022;-80
2022/01/07 03:33:57;;;;;;;4.90;2.88;;;7.00;59.90;;;;;;5018370;28;20072;-80
2022/01/07 03:36:22;;;;;;;4.25;2.50;;;7.00;59.90;;;;;;5014502;28;20038;-80
2022/01/07 03:38:48;;;;;;;5.30;2.72;;;7.00;60.10;;;;;;5020864;28;20029;-81
2022/01/07 03:41:14;;;;;;;4.32;2.70;;;7.00;60.00;;;;;;4997890;28;20500;-81
2022/01/07 03:43:39;;;;;;;7.38;4.20;;;7.00;60.00;;;;;;5002156;28;20512;-81
2022/01/07 03:46:05;;;;;;;5.55;3.15;;;6.80;59.30;;;;;;5021466;28;20030;-80
2022/01/07 03:48:31;;;;;;;4.88;3.10;;;6.90;60.30;;;;;;5000136;28;20462;-81
2022/01/07 03:50:56;;;;;;;4.68;2.92;;;6.90;60.80;;;;;;5013708;28;20453;-80
2022/01/07 03:53:25;;;;;;;5.57;3.33;;;6.90;60.90;;;;;;5024242;28;20026;-79
2022/01/07 03:55:52;;;;;;;4.30;3.10;;;6.90;60.80;;;;;;5013853;28;20462;-80
2022/01/07 03:58:18;;;;;;;6.22;3.90;;;6.90;60.90;;;;;;5018580;28;20108;-80
2022/01/07 04:00:44;;;;;;;6.00;3.92;;;6.80;60.70;;;;;;5022845;28;20029;-80
2022/01/07 04:03:13;;;;;;;8.98;3.88;;;6.70;60.70;;;;;;5016623;28;20370;-81
2022/01/07 04:05:39;;;;;;;6.15;3.63;;;6.70;61.30;;;;;;5003037;28;20036;-81
2022/01/07 04:08:06;;;;;;;5.28;3.50;;;6.70;61.60;;;;;;5013725;28;20037;-80
2022/01/07 04:10:32;;;;;;;4.63;3.30;;;6.70;61.70;;;;;;5016581;28;20048;-80
2022/01/07 04:12:58;;;;;;;4.40;3.30;;;6.70;61.80;;;;;;5003174;28;20053;-81
2022/01/07 04:15:24;;;;;;;6.25;3.35;;;6.70;61.50;;;;;;5022107;28;20030;-81
2022/01/07 04:17:52;;;;;;;5.32;3.58;;;6.60;61.50;;;;;;5021633;28;20034;-79
2022/01/07 04:20:22;;;;;;;5.80;3.75;;;6.70;61.50;;;;;;5012449;28;20038;-80
2022/01/07 04:22:48;;;;;;;8.20;4.18;;;6.70;61.50;;;;;;5013453;28;20037;-80
2022/01/07 04:25:18;;;;;;;7.10;4.03;;;6.70;61.30;;;;;;5012684;28;20116;-80
2022/01/07 04:27:49;;;;;;;5.32;3.95;;;6.70;61.50;;;;;;5003447;28;20028;-80
2022/01/07 04:30:16;;;;;;;7.40;4.05;;;6.60;61.60;;;;;;5023615;28;20549;-80
2022/01/07 04:32:42;;;;;;;6.25;4.22;;;6.60;61.70;;;;;;4996301;28;20022;-80
2022/01/07 04:35:09;;;;;;;4.68;3.20;;;6.60;61.90;;;;;;5012936;28;20125;-79
2022/01/07 04:37:35;;;;;;;5.38;3.50;;;6.50;62.00;;;;;;5026085;28;20415;-80
2022/01/07 04:40:03;;;;;;;4.85;3.15;;;6.60;62.00;;;;;;5001004;28;20026;-80
2022/01/07 04:42:28;;;;;;;5.78;3.58;;;6.50;62.10;;;;;;5019447;28;20038;-80
2022/01/07 04:44:54;;;;;;;5.82;3.08;;;6.60;62.30;;;;;;5018269;28;20038;-79
2022/01/07 04:47:20;;;;;;;4.72;3.10;;;6.60;62.60;;;;;;5013892;28;20466;-80
2022/01/07 04:49:45;;;;;;;4.40;2.95;;;6.60;62.80;;;;;;5015269;28;20454;-80
2022/01/07 04:52:12;;;;;;;4.53;2.90;;;6.40;62.70;;;;;;4998364;28;20095;-81
2022/01/07 04:54:38;;;;;;;6.43;2.92;;;6.50;63.00;;;;;;5003360;28;20030;-80
2022/01/07 04:57:04;;;;;;;5.45;3.50;;;6.40;63.20;;;;;;5027664;28;20370;-80
2022/01/07 04:59:29;;;;;;;4.60;3.10;;;6.40;63.10;;;;;;5020701;28;20368;-80
2022/01/07 05:01:55;;;;;;;4.57;2.97;;;6.30;63.10;;;;;;5012851;28;20037;-79
2022/01/07 05:04:21;;;;;;;3.58;2.50;;;6.30;63.40;;;;;;5023473;28;20041;-80
2022/01/07 05:06:47;;;;;;;4.07;2.67;;;6.30;63.60;;;;;;4997242;28;20034;-80
2022/01/07 05:09:16;;;;;;;3.42;2.50;;;6.30;63.40;;;;;;5012962;28;20433;-80
2022/01/07 05:11:45;;;;;;;4.03;2.47;;;6.30;63.70;;;;;;5019969;28;20029;-79
2022/01/07 05:14:12;;;;;;;3.13;2.33;;;6.20;63.30;;;;;;5020980;28;20510;-80
2022/01/07 05:16:38;;;;;;;4.70;3.15;;;6.10;63.90;;;;;;5021651;28;20033;-80
2022/01/07 05:19:03;;;;;;;4.65;2.92;;;6.10;64.20;;;;;;5025525;28;20029;-80
2022/01/07 05:21:29;;;;;;;4.65;2.45;;;6.00;64.10;;;;;;5017273;28;20136;-81
2022/01/07 05:23:55;;;;;;;3.85;2.95;;;6.00;64.30;;;;;;5015786;28;20026;-79
2022/01/07 05:26:22;;;;;;;3.55;2.38;;;6.00;64.40;;;;;;5012357;28;20124;-80
2022/01/07 05:28:50;;;;;;;3.22;2.55;;;5.90;64.30;;;;;;5013243;28;21010;-80
2022/01/07 05:31:17;;;;;;;4.28;2.67;;;6.00;64.60;;;;;;5013492;28;20092;-81
2022/01/07 05:33:43;;;;;;;5.38;2.78;;;6.00;64.60;;;;;;5015872;28;20044;-79
2022/01/07 05:36:08;;;;;;;3.47;2.40;;;6.10;64.70;;;;;;5020365;28;20370;-81
2022/01/07 05:38:34;;;;;;;4.10;2.92;;;6.10;64.40;;;;;;5016240;28;20508;-78
2022/01/07 05:41:00;;;;;;;5.53;2.88;;;6.10;64.20;;;;;;5029001;28;20029;-79
2022/01/07 05:43:28;;;;;;;5.22;2.85;;;6.10;64.30;;;;;;5016174;28;20109;-79
2022/01/07 05:45:54;;;;;;;3.75;2.63;;;6.10;64.30;;;;;;5015647;28;20033;-79
2022/01/07 05:48:20;;;;;;;4.05;2.70;;;6.10;64.10;;;;;;5015967;28;20108;-79
2022/01/07 05:50:46;;;;;;;3.85;2.67;;;6.10;64.10;;;;;;5016450;28;20105;-80
2022/01/07 05:53:11;;;;;;;3.53;2.50;;;6.10;64.00;;;;;;5016295;28;20101;-80
2022/01/07 05:55:37;;;;;;;3.83;2.40;;;6.00;64.10;;;;;;5016384;28;20022;-79
2022/01/07 05:58:03;;;;;;;5.68;3.58;;;5.90;64.10;;;;;;5016671;28;20061;-80
2022/01/07 06:00:28;;;;;;;3.67;2.67;;;5.90;64.00;;;;;;5002590;28;20457;-79
2022/01/07 06:02:54;;;;;;;5.93;3.15;;;5.90;64.30;;;;;;5030753;28;20021;-79
2022/01/07 06:05:20;;;;;;;6.18;2.95;;;5.80;63.50;;;;;;5001607;28;20030;-79
2022/01/07 06:07:46;;;;;;;4.13;2.53;;;5.90;64.90;;;;;;5016474;28;20451;-79
2022/01/07 06:10:12;;;;;;;4.63;2.55;;;5.90;64.10;;;;;;5016492;28;20022;-79
2022/01/07 06:12:39;;;;;;;3.58;2.50;;;5.90;63.90;;;;;;5020124;28;20554;-80
2022/01/07 06:15:05;;;;;;;4.00;2.38;;;5.80;63.50;;;;;;5018976;28;20041;-79
2022/01/07 06:17:32;;;;;;;4.55;2.83;;;5.90;63.40;;;;;;5019997;28;20030;-80
2022/01/07 06:19:58;;;;;;;2.63;2.05;;;5.90;63.70;;;;;;5014583;28;20035;-79
2022/01/07 06:22:23;;;;;;;3.47;2.35;;;6.00;63.80;;;;;;5016415;28;20133;-79
2022/01/07 06:24:49;;;;;;;4.55;2.45;;;6.00;63.20;;;;;;4998394;28;20038;-78
2022/01/07 06:27:15;;;;;;;2.95;2.08;;;6.00;63.00;;;;;;5017464;28;20034;-78
2022/01/07 06:29:41;;;;;;;4.70;2.55;;;6.00;63.00;;;;;;5015304;28;20103;-78
2022/01/07 06:32:30;;;;;;;2.97;1.92;;;6.10;63.20;;;;;;5013908;28;20062;-78
2022/01/07 06:34:56;;;;;;;3.85;1.85;;;6.00;63.30;;;;;;5014843;28;21452;-78
2022/01/07 06:37:22;;;;;;;2.72;2.05;;;6.10;63.20;;;;;;5013095;28;20034;-77
2022/01/07 06:39:48;;;;;;;2.15;1.42;;;6.10;62.70;;;;;;4996928;28;20038;-78
2022/01/07 06:42:13;;;;;;;2.20;1.85;;;6.10;62.40;;;;;;5014868;28;20510;-78
2022/01/07 06:44:39;;;;;;;3.20;1.50;;;6.10;62.20;;;;;;5007357;28;20041;-78
2022/01/07 06:47:05;;;;;;;2.58;1.63;;;6.00;61.70;;;;;;5015368;28;20034;-77
2022/01/07 06:49:31;;;;;;;3.08;1.92;;;6.10;62.00;;;;;;4997724;28;20120;-78
2022/01/07 06:51:57;;;;;;;4.68;1.83;;;6.20;62.30;;;;;;5014854;28;20096;-77
2022/01/07 06:54:24;;;;;;;3.38;2.00;;;6.20;62.10;;;;;;4999181;28;20378;-77
2022/01/07 06:56:49;;;;;;;2.88;2.00;;;6.20;62.20;;;;;;4996699;28;20042;-76
2022/01/07 06:59:15;;;;;;;5.43;2.92;;;6.00;61.40;;;;;;5009391;28;20020;-76
2022/01/07 07:01:43;;;;;;;5.88;2.80;;;6.00;61.50;;;;;;5009142;28;20459;-80
2022/01/07 07:04:08;;;;;;;5.10;2.55;;;6.00;61.50;;;;;;5013182;28;20038;-78
2022/01/07 07:06:39;;;;;;;5.20;2.72;;;6.00;61.60;;;;;;5012507;28;20033;-78
2022/01/07 07:09:08;;;;;;;3.50;2.42;;;6.10;61.70;;;;;;5013903;28;20026;-78
2022/01/07 07:11:34;;;;;;;4.85;3.13;;;6.10;61.60;;;;;;5010672;28;20060;-78
2022/01/07 07:14:00;;;;;;;3.88;2.67;;;6.10;61.50;;;;;;5021556;28;20061;-78
2022/01/07 07:16:25;;;;;;;2.53;2.00;;;6.10;60.90;;;;;;5021428;28;20463;-78
2022/01/07 07:18:51;;;;;;;3.13;2.40;;;6.10;60.80;;;;;;5021781;28;20033;-78
2022/01/07 07:21:17;;;;;;;3.00;2.10;;;6.10;60.90;;;;;;5000340;28;20418;-79
2022/01/07 07:23:43;;;;;;;3.08;2.35;;;6.10;60.80;;;;;;5015239;28;20532;-77
2022/01/07 07:26:09;;;;;;;3.47;2.55;;;6.00;61.40;;;;;;5018491;28;20042;-80
2022/01/07 07:28:36;;;;;;;3.35;1.65;;;5.80;59.50;;;;;;5025330;28;20079;-80
2022/01/07 07:31:11;;;;;;;3.38;2.00;;;5.80;61.30;;;;;;5020326;28;20022;-81
2022/01/07 07:36:33;;;;;;;3.38;1.80;;;5.90;61.20;;;;;;5033690;28;20043;-80
2022/01/07 07:39:05;;;;;;;2.90;1.67;;;5.90;61.00;;;;;;5033580;28;20517;-80
2022/01/07 07:41:32;;;;;;;2.38;1.70;;;5.80;60.90;;;;;;5035944;28;20088;-82
2022/01/07 07:43:58;;;;;;;2.40;1.90;;;5.90;60.90;;;;;;5038706;28;20048;-83
2022/01/07 07:46:26;;;;;;;2.13;1.70;;;5.90;60.80;;;;;;5034805;28;20026;-83
2022/01/07 07:48:52;;;;;;;2.28;1.60;;;6.00;60.80;;;;;;5034363;28;20063;-84
2022/01/07 07:51:19;;;;;;;2.35;1.75;;;6.10;60.80;;;;;;5031624;28;20060;-82
2022/01/07 07:53:45;;;;;;;2.70;1.60;;;6.10;60.70;;;;;;5032343;28;20029;-81
2022/01/07 07:56:13;;;;;;;2.88;1.50;;;6.20;60.70;;;;;;5034891;28;20038;-87
2022/01/07 07:58:40;;;;;;;2.15;1.63;;;6.20;60.60;;;;;;5035799;28;20082;-81
2022/01/07 08:01:06;;;;;;;2.67;1.75;;;6.20;60.10;;;;;;5012303;28;20092;-82
2022/01/07 08:03:33;;;;;;;2.58;1.40;;;6.30;60.00;;;;;;5029075;28;20474;-81
2022/01/07 08:05:59;;;;;;;2.65;1.70;;;6.30;59.80;;;;;;5023739;28;20025;-82
2022/01/07 08:08:25;;;;;;;3.28;2.10;;;6.30;59.90;;;;;;5034022;28;20053;-82
2022/01/07 08:10:55;;;;;;;3.10;1.80;;;6.30;59.10;;;;;;5032657;28;20488;-81
2022/01/07 08:15:58;;;;;;;3.15;2.22;;;6.20;59.40;;;;;;5034182;28;20041;-80
2022/01/07 08:18:32;;;;;;;6.40;2.63;;;6.20;58.60;;;;;;5033902;28;20025;-80
2022/01/07 08:21:07;;;;;;;4.25;2.28;;;6.10;59.10;;;;;;5034096;28;20057;-80
2022/01/07 08:23:35;;;;;;;3.15;2.38;;;6.10;59.60;;;;;;5001681;28;20508;-81
2022/01/07 08:26:03;;;;;;;2.30;1.90;;;6.20;59.60;;;;;;5034665;28;20034;-82
2022/01/07 08:28:35;;;;;;;4.25;2.45;;;6.20;59.70;;;;;;5035048;28;20026;-83
2022/01/07 08:31:24;;;;;;;3.00;1.80;;;6.30;59.80;;;;;;5035102;28;20112;-84
2022/01/07 08:36:36;;;;;;;2.42;1.50;;;6.30;58.60;;;;;;5019455;28;20037;-85
2022/01/07 08:39:06;;;;;;;2.25;1.60;;;6.30;59.60;;;;;;5025351;28;20028;-76
2022/01/07 08:41:33;;;;;;;2.95;1.92;;;6.40;59.30;;;;;;5030423;28;20108;-78
2022/01/07 08:43:59;;;;;;;3.03;1.77;;;6.50;59.60;;;;;;4995816;28;20022;-78
2022/01/07 08:46:26;;;;;;;3.55;1.80;;;6.60;59.90;;;;;;5013532;28;20029;-78
2022/01/07 08:48:51;;;;;;;2.70;1.85;;;6.70;59.70;;;;;;5031841;28;20033;-77
2022/01/07 08:51:17;;;;;;;2.80;2.00;;;6.90;59.50;;;;;;5032684;28;20029;-83
2022/01/07 08:53:43;;;;;;;3.20;2.10;;;7.00;59.60;;;;;;5035037;28;20030;-81
2022/01/07 08:56:09;;;;;;;3.05;2.22;;;6.90;58.80;;;;;;5034573;28;20037;-82
2022/01/07 08:58:35;;;;;;;4.57;2.25;;;7.10;58.30;;;;;;5015854;28;20447;-81
2022/01/07 09:01:01;;;;;;;4.18;1.88;;;7.30;58.30;;;;;;5034296;28;20034;-82
2022/01/07 09:03:27;;;;;;;3.08;1.90;;;7.40;56.90;;;;;;5015721;28;20462;-81
2022/01/07 09:05:53;;;;;;;3.03;2.10;;;7.50;57.70;;;;;;5032877;28;20071;-81
2022/01/07 09:08:19;;;;;;;3.92;2.42;;;7.60;57.40;;;;;;5033776;28;20038;-80
2022/01/07 09:10:45;;;;;;;3.08;2.30;;;7.60;57.30;;;;;;5015737;28;20025;-81
2022/01/07 09:13:11;;;;;;;3.97;2.40;;;7.70;56.50;;;;;;5032747;28;20109;-81
2022/01/07 09:15:38;;;;;;;2.67;1.92;;;7.70;56.40;;;;;;5033545;28;20025;-81
2022/01/07 09:18:10;;;;;;;3.90;2.22;;;7.70;56.40;;;;;;5032605;28;20450;-82
2022/01/07 09:20:41;;;;;;;2.90;1.88;;;7.80;56.40;;;;;;5034710;28;20067;-83
2022/01/07 09:23:08;;;;;;;2.60;1.98;;;7.80;55.50;;;;;;5026453;28;20029;-84
2022/01/07 09:25:34;;;;;;;4.25;2.35;;;7.80;56.30;;;;;;5014557;28;20057;-82
2022/01/07 09:28:00;;;;;;;2.60;2.03;;;7.70;55.90;;;;;;5012396;28;20057;-82
2022/01/07 09:30:26;;;;;;;2.92;1.92;;;7.80;56.50;;;;;;5014337;28;20039;-80
2022/01/07 09:32:52;;;;;;;3.33;2.25;;;7.70;55.10;;;;;;5012863;28;20116;-78
2022/01/07 09:35:18;;;;;;;5.18;2.10;;;7.70;55.00;;;;;;5012993;28;20157;-75
2022/01/07 09:37:44;;;;;;;2.58;1.80;;;7.70;55.90;;;;;;5013159;28;20026;-74
2022/01/07 09:40:11;;;;;;;3.42;2.17;;;7.80;55.80;;;;;;5012812;28;20038;-74
2022/01/07 09:42:37;;;;;;;2.55;1.80;;;7.90;55.70;;;;;;5013204;28;20108;-74
2022/01/07 09:45:03;;;;;;;5.43;2.45;;;8.00;55.80;;;;;;5004475;28;20068;-75
2022/01/07 09:47:30;;;;;;;2.88;2.45;;;7.90;53.60;;;;;;5009679;28;20045;-74
2022/01/07 09:49:55;;;;;;;2.88;1.95;;;7.80;53.70;;;;;;5010975;28;20029;-75
2022/01/07 09:52:21;;;;;;;3.28;1.60;;;8.00;54.20;;;;;;5012879;28;20374;-74
2022/01/07 09:54:48;;;;;;;4.30;1.70;;;7.90;53.50;;;;;;5012409;28;20028;-74
2022/01/07 09:57:13;;;;;;;2.58;1.70;;;7.90;55.00;;;;;;5012461;28;20038;-80
2022/01/07 09:59:40;;;;;;;2.95;1.70;;;8.10;55.40;;;;;;5012983;28;20034;-80
2022/01/07 10:02:09;;;;;;;3.70;1.92;;;8.30;55.60;;;;;;5011947;28;20514;-80
2022/01/07 10:04:40;;;;;;;2.30;1.67;;;8.50;55.60;;;;;;5013209;28;20026;-80
2022/01/07 10:07:22;;;;;;;2.75;1.88;;;8.60;55.30;;;;;;5012916;28;20036;-80
2022/01/07 10:09:58;;;;;;;4.55;2.45;;;8.70;54.30;;;;;;5012781;28;20084;-81
2022/01/07 10:12:25;;;;;;;3.40;2.20;;;8.80;54.30;;;;;;5023778;28;20033;-80
2022/01/07 10:15:23;;;;;;;2.70;1.55;;;8.70;50.70;;;;;;5013536;28;20079;-81
2022/01/07 10:18:01;;;;;;;2.63;2.15;;;8.80;53.90;;;;;;4996400;28;20018;-80
2022/01/07 10:20:32;;;;;;;4.93;2.10;;;8.90;53.20;;;;;;5000587;28;20113;-80
2022/01/07 10:23:14;;;;;;;3.17;1.95;;;9.00;54.60;;;;;;5016502;28;20036;-80
2022/01/07 10:25:42;;;;;;;5.25;2.83;;;9.20;54.30;;;;;;5015809;28;20041;-80
2022/01/07 10:28:13;;;;;;;2.53;1.95;;;9.30;52.20;;;;;;5015928;28;20160;-81
2022/01/07 10:30:46;;;;;;;4.28;2.15;;;9.20;51.30;;;;;;5016302;28;20107;-80
2022/01/07 10:33:19;;;;;;;3.15;2.00;;;9.10;50.70;;;;;;5015326;28;20030;-80
2022/01/07 10:35:51;;;;;;;5.47;2.90;;;9.30;54.50;;;;;;5015596;28;20026;-80
2022/01/07 10:38:20;;;;;;;4.82;2.20;;;9.40;49.70;;;;;;5015713;28;20037;-81
2022/01/07 10:40:47;;;;;;;3.28;1.83;;;9.60;53.30;;;;;;5017534;28;20494;-82
2022/01/07 10:43:34;;;;;;;3.38;1.95;;;9.90;52.50;;;;;;5035767;28;20041;-81
2022/01/07 10:46:07;;;;;;;2.13;1.33;;;10.10;52.70;;;;;;5030824;28;20029;-81
2022/01/07 10:48:47;;;;;;;3.83;1.27;;;10.40;52.20;;;;;;5015511;28;20033;-81
2022/01/07 10:51:19;;;;;;;2.58;1.52;;;10.70;51.10;;;;;;5007466;28;20390;-82
2022/01/07 10:53:53;;;;;;;3.35;1.90;;;10.80;45.60;;;;;;5015655;28;20149;-81
2022/01/07 10:56:24;;;;;;;2.33;1.40;;;10.70;42.90;;;;;;5014761;28;20064;-81
2022/01/07 10:58:51;;;;;;;2.95;1.83;;;10.80;47.80;;;;;;5015129;28;20030;-81
2022/01/07 11:01:19;;;;;;;2.95;1.63;;;11.00;46.60;;;;;;5014336;28;20697;-81
2022/01/07 11:03:50;;;;;;;1.45;1.20;;;11.20;47.00;;;;;;5014370;28;20034;-81
2022/01/07 11:06:16;;;;;;;2.05;1.33;;;11.30;46.50;;;;;;5014479;28;20108;-81
2022/01/07 11:08:42;;;;;;;2.47;1.42;;;11.40;46.50;;;;;;5016144;28;20070;-81
2022/01/07 11:11:11;;;;;;;3.10;1.50;;;11.70;46.10;;;;;;5016033;28;20432;-81
2022/01/07 11:13:38;;;;;;;1.77;1.17;;;11.80;45.50;;;;;;5028192;28;20053;-81
2022/01/07 11:16:05;;;;;;;1.17;1.00;;;11.90;41.30;;;;;;5035398;28;20097;-81
2022/01/07 11:18:32;;;;;;;1.73;1.00;;;12.00;44.70;;;;;;5035410;28;20033;-81
2022/01/07 11:20:59;;;;;;;2.60;1.23;;;12.20;44.40;;;;;;5034841;28;20076;-81
2022/01/07 11:23:31;;;;;;;2.33;1.48;;;12.20;42.50;;;;;;5034612;28;20046;-81
2022/01/07 11:26:08;;;;;;;2.05;1.27;;;12.40;43.10;;;;;;5016360;28;20507;-81
2022/01/07 11:28:36;;;;;;;1.83;1.17;;;12.50;43.20;;;;;;5034313;28;20052;-81
2022/01/07 11:31:13;;;;;;;3.50;1.60;;;12.70;41.70;;;;;;5033825;28;20025;-81
2022/01/07 11:33:39;;;;;;;4.93;1.77;;;12.60;39.50;;;;;;5023066;28;20115;-81
2022/01/07 11:36:10;;;;;;;1.85;1.10;;;12.30;36.10;;;;;;5019932;28;20890;-81
2022/01/07 11:38:41;;;;;;;1.70;1.27;;;12.20;39.00;;;;;;5011499;28;20172;-81
2022/01/07 11:41:09;;;;;;;1.60;1.05;;;12.50;40.90;;;;;;5027117;28;20061;-81
2022/01/07 11:43:47;;;;;;;1.23;0.93;;;12.90;41.00;;;;;;4996920;28;20029;-81
2022/01/07 11:46:28;;;;;;;1.30;1.10;;;13.40;39.40;;;;;;5026725;28;20100;-81
2022/01/07 11:48:55;;;;;;;1.10;0.93;;;13.70;36.40;;;;;;5025291;28;20037;-81
2022/01/07 11:51:21;;;;;;;1.88;1.20;;;14.40;36.90;;;;;;5020767;28;20034;-82
2022/01/07 11:53:50;;;;;;;1.75;1.27;;;15.40;36.60;;;;;;4999062;28;20371;-82
2022/01/07 11:56:17;;;;;;;3.03;1.38;;;16.60;35.10;;;;;;5009320;28;20037;-82
2022/01/07 11:58:44;;;;;;;2.95;1.40;;;17.70;31.90;;;;;;5014249;28;20042;-82
2022/01/07 12:01:34;;;;;;;1.77;1.20;;;18.60;30.60;;;;;;5026323;28;20390;-82
2022/01/07 12:04:27;;;;;;;1.33;1.15;;;19.10;28.70;;;;;;5023110;28;20104;-81
2022/01/07 12:06:55;;;;;;;2.33;1.20;;;19.60;27.00;;;;;;5009264;28;20088;-82
2022/01/07 12:09:28;;;;;;;1.23;1.08;;;20.20;27.90;;;;;;5019212;28;20183;-82
2022/01/07 12:12:01;;;;;;;2.17;1.30;;;20.40;27.00;;;;;;5026058;28;20048;-81
2022/01/07 12:14:33;;;;;;;1.60;1.23;;;20.60;26.00;;;;;;5032840;28;20521;-83
2022/01/07 12:17:02;;;;;;;3.65;1.13;;;20.80;25.40;;;;;;5034042;28;20505;-82
2022/01/07 12:19:28;;;;;;;2.17;1.23;;;21.10;24.10;;;;;;5034707;28;20025;-82
2022/01/07 12:21:55;;;;;;;1.45;0.95;;;21.20;25.00;;;;;;5010305;28;20060;-82
2022/01/07 12:24:23;;;;;;;1.58;1.20;;;21.30;24.30;;;;;;5031799;28;20017;-82
2022/01/07 12:27:05;;;;;;;1.85;1.42;;;21.40;24.60;;;;;;5011618;28;20040;-82
2022/01/07 12:29:36;;;;;;;1.50;1.10;;;21.60;24.30;;;;;;5025094;28;20033;-82
2022/01/07 12:32:05;;;;;;;1.55;1.20;;;21.60;24.30;;;;;;5034565;28;20052;-82
2022/01/07 12:34:36;;;;;;;1.77;1.27;;;21.70;23.70;;;;;;5034130;28;20080;-82
2022/01/07 12:37:05;;;;;;;1.60;1.13;;;21.60;23.30;;;;;;5034483;28;20029;-81
2022/01/07 12:39:35;;;;;;;2.30;1.48;;;21.50;24.10;;;;;;5016661;28;20022;-81
2022/01/07 12:42:03;;;;;;;1.17;1.02;;;21.40;23.70;;;;;;5004579;28;20022;-81
2022/01/07 12:44:37;;;;;;;2.75;1.85;;;21.40;24.70;;;;;;5029803;28;20041;-81
2022/01/07 12:47:03;;;;;;;2.50;1.77;;;21.20;24.30;;;;;;5029328;28;20033;-82
2022/01/07 12:49:33;;;;;;;1.83;1.40;;;20.70;24.00;;;;;;5033205;28;20048;-82
2022/01/07 12:52:01;;;;;;;1.30;1.17;;;20.40;25.30;;;;;;5014994;28;20436;-81
2022/01/07 12:54:27;;;;;;;3.67;2.17;;;19.90;25.40;;;;;;5033493;28;20087;-82
2022/01/07 12:56:52;;;;;;;1.80;1.13;;;19.60;25.90;;;;;;5033804;28;20021;-81
2022/01/07 12:59:18;;;;;;;1.88;1.40;;;19.60;25.90;;;;;;5033836;28;20580;-82
2022/01/07 13:01:46;;;;;;;2.33;1.30;;;19.30;25.50;;;;;;5033004;28;20057;-81
2022/01/07 13:04:14;;;;;;;2.92;1.63;;;19.10;25.70;;;;;;5032708;28;20030;-82
2022/01/07 13:06:46;;;;;;;3.65;1.20;;;19.40;26.40;;;;;;5033756;28;20533;-82
2022/01/07 13:09:14;;;;;;;2.22;1.23;;;19.60;25.20;;;;;;5033233;28;20129;-82